sensor_id;sensor_type;location;lat;lon;timestamp;temperature;humidity
20376;DHT22;10347;51.828;6.466;2022-09-09T00:00:41;18.60;99.90
20376;DHT22;10347;51.828;6.466;2022-09-09T00:03:25;18.60;99.90
20376;DHT22;10347;51.828;6.466;2022-09-09T00:05:59;18.60;99.90
20376;DHT22;10347;51.828;6.466;2022-09-09T00:11:24;18.60;99.90
20376;DHT22;10347;51.828;6.466;2022-09-09T00:13:57;18.60;99.90
20376;DHT22;10347;51.828;6.466;2022-09-09T00:16:27;18.60;99.90
20376;DHT22;10347;51.828;6.466;2022-09-09T00:19:10;18.60;99.90
20376;DHT22;10347;51.828;6.466;2022-09-09T00:24:46;18.50;99.90
20376;DHT22;10347;51.828;6.466;2022-09-09T00:27:47;18.50;99.90
20376;DHT22;10347;51.828;6.466;2022-09-09T00:32:59;18.40;99.90
20376;DHT22;10347;51.828;6.466;2022-09-09T00:35:35;18.40;99.90
20376;DHT22;10347;51.828;6.466;2022-09-09T00:38:25;18.40;99.90
20376;DHT22;10347;51.828;6.466;2022-09-09T00:43:30;18.30;99.90
20376;DHT22;10347;51.828;6.466;2022-09-09T00:51:38;18.30;99.90
20376;DHT22;10347;51.828;6.466;2022-09-09T00:59:51;18.20;99.90
20376;DHT22;10347;51.828;6.466;2022-09-09T01:02:36;18.20;99.90
20376;DHT22;10347;51.828;6.466;2022-09-09T01:07:58;18.20;99.90
20376;DHT22;10347;51.828;6.466;2022-09-09T01:10:45;18.20;99.90
20376;DHT22;10347;51.828;6.466;2022-09-09T01:13:28;18.20;99.90
20376;DHT22;10347;51.828;6.466;2022-09-09T01:15:57;18.20;99.90
20376;DHT22;10347;51.828;6.466;2022-09-09T01:18:27;18.20;99.90
20376;DHT22;10347;51.828;6.466;2022-09-09T01:26:21;18.20;99.90
20376;DHT22;10347;51.828;6.466;2022-09-09T01:28:50;18.20;99.90
20376;DHT22;10347;51.828;6.466;2022-09-09T01:34:12;18.20;99.90
20376;DHT22;10347;51.828;6.466;2022-09-09T01:36:46;18.20;99.90
20376;DHT22;10347;51.828;6.466;2022-09-09T01:39:13;18.20;99.90
20376;DHT22;10347;51.828;6.466;2022-09-09T01:41:39;18.20;99.90
20376;DHT22;10347;51.828;6.466;2022-09-09T01:44:05;18.20;99.90
20376;DHT22;10347;51.828;6.466;2022-09-09T01:46:32;18.10;99.90
20376;DHT22;10347;51.828;6.466;2022-09-09T01:48:59;18.00;99.90
20376;DHT22;10347;51.828;6.466;2022-09-09T01:51:26;18.00;99.90
20376;DHT22;10347;51.828;6.466;2022-09-09T01:53:52;18.00;99.90
20376;DHT22;10347;51.828;6.466;2022-09-09T01:56:33;18.10;99.90
20376;DHT22;10347;51.828;6.466;2022-09-09T02:01:46;18.10;99.90
20376;DHT22;10347;51.828;6.466;2022-09-09T02:06:56;18.10;99.90
20376;DHT22;10347;51.828;6.466;2022-09-09T02:09:24;18.00;99.90
20376;DHT22;10347;51.828;6.466;2022-09-09T02:11:57;18.00;99.90
20376;DHT22;10347;51.828;6.466;2022-09-09T02:14:31;18.00;99.90
20376;DHT22;10347;51.828;6.466;2022-09-09T02:17:06;17.90;99.90
20376;DHT22;10347;51.828;6.466;2022-09-09T02:19:36;17.90;99.90
20376;DHT22;10347;51.828;6.466;2022-09-09T02:22:03;17.80;99.90
20376;DHT22;10347;51.828;6.466;2022-09-09T02:24:32;17.90;99.90
20376;DHT22;10347;51.828;6.466;2022-09-09T02:27:02;17.80;99.90
20376;DHT22;10347;51.828;6.466;2022-09-09T02:29:33;17.90;99.90
20376;DHT22;10347;51.828;6.466;2022-09-09T02:32:03;17.80;99.90
20376;DHT22;10347;51.828;6.466;2022-09-09T02:34:31;17.80;99.90
20376;DHT22;10347;51.828;6.466;2022-09-09T02:37:00;17.80;99.90
20376;DHT22;10347;51.828;6.466;2022-09-09T02:39:28;17.70;99.90
20376;DHT22;10347;51.828;6.466;2022-09-09T02:41:53;17.70;99.90
20376;DHT22;10347;51.828;6.466;2022-09-09T02:44:19;17.70;99.90
20376;DHT22;10347;51.828;6.466;2022-09-09T02:47:10;17.80;99.90
20376;DHT22;10347;51.828;6.466;2022-09-09T02:50:17;17.70;99.90
20376;DHT22;10347;51.828;6.466;2022-09-09T02:52:59;17.70;99.90
20376;DHT22;10347;51.828;6.466;2022-09-09T02:55:37;17.70;99.90
20376;DHT22;10347;51.828;6.466;2022-09-09T02:58:05;17.70;99.90
20376;DHT22;10347;51.828;6.466;2022-09-09T03:00:32;17.70;99.90
20376;DHT22;10347;51.828;6.466;2022-09-09T03:02:58;17.70;99.90
20376;DHT22;10347;51.828;6.466;2022-09-09T03:05:24;17.70;99.90
20376;DHT22;10347;51.828;6.466;2022-09-09T03:07:49;17.70;99.90
20376;DHT22;10347;51.828;6.466;2022-09-09T03:10:16;17.70;99.90
20376;DHT22;10347;51.828;6.466;2022-09-09T03:12:42;17.60;99.90
20376;DHT22;10347;51.828;6.466;2022-09-09T03:15:08;17.60;99.90
20376;DHT22;10347;51.828;6.466;2022-09-09T03:17:35;17.60;99.90
20376;DHT22;10347;51.828;6.466;2022-09-09T03:20:02;17.50;99.90
20376;DHT22;10347;51.828;6.466;2022-09-09T03:22:27;17.50;99.90
20376;DHT22;10347;51.828;6.466;2022-09-09T03:24:53;17.50;99.90
20376;DHT22;10347;51.828;6.466;2022-09-09T03:27:18;17.50;99.90
20376;DHT22;10347;51.828;6.466;2022-09-09T03:29:45;17.40;99.90
20376;DHT22;10347;51.828;6.466;2022-09-09T03:32:11;17.40;99.90
20376;DHT22;10347;51.828;6.466;2022-09-09T03:34:37;17.40;99.90
20376;DHT22;10347;51.828;6.466;2022-09-09T03:37:05;17.40;99.90
20376;DHT22;10347;51.828;6.466;2022-09-09T03:39:31;17.40;99.90
20376;DHT22;10347;51.828;6.466;2022-09-09T03:41:57;17.40;99.90
20376;DHT22;10347;51.828;6.466;2022-09-09T03:44:22;17.30;99.90
20376;DHT22;10347;51.828;6.466;2022-09-09T03:46:48;17.30;99.90
20376;DHT22;10347;51.828;6.466;2022-09-09T03:49:14;17.30;99.90
20376;DHT22;10347;51.828;6.466;2022-09-09T03:51:40;17.30;99.90
20376;DHT22;10347;51.828;6.466;2022-09-09T03:54:07;17.30;99.90
20376;DHT22;10347;51.828;6.466;2022-09-09T03:56:36;17.30;99.90
20376;DHT22;10347;51.828;6.466;2022-09-09T03:59:02;17.30;99.90
20376;DHT22;10347;51.828;6.466;2022-09-09T04:01:28;17.40;99.90
20376;DHT22;10347;51.828;6.466;2022-09-09T04:03:53;17.40;99.90
20376;DHT22;10347;51.828;6.466;2022-09-09T04:06:20;17.40;99.90
20376;DHT22;10347;51.828;6.466;2022-09-09T04:08:46;17.40;99.90
20376;DHT22;10347;51.828;6.466;2022-09-09T04:11:14;17.30;99.90
20376;DHT22;10347;51.828;6.466;2022-09-09T04:13:42;17.30;99.90
20376;DHT22;10347;51.828;6.466;2022-09-09T04:16:10;17.30;99.90
20376;DHT22;10347;51.828;6.466;2022-09-09T04:18:37;17.30;99.90
20376;DHT22;10347;51.828;6.466;2022-09-09T04:21:03;17.30;99.90
20376;DHT22;10347;51.828;6.466;2022-09-09T04:23:29;17.30;99.90
20376;DHT22;10347;51.828;6.466;2022-09-09T04:25:56;17.30;99.90
20376;DHT22;10347;51.828;6.466;2022-09-09T04:28:24;17.30;99.90
20376;DHT22;10347;51.828;6.466;2022-09-09T04:30:51;17.30;99.90
20376;DHT22;10347;51.828;6.466;2022-09-09T04:33:18;17.40;99.90
20376;DHT22;10347;51.828;6.466;2022-09-09T04:35:45;17.30;99.90
20376;DHT22;10347;51.828;6.466;2022-09-09T04:38:12;17.40;99.90
20376;DHT22;10347;51.828;6.466;2022-09-09T04:40:38;17.40;99.90
20376;DHT22;10347;51.828;6.466;2022-09-09T04:43:08;17.40;99.90
20376;DHT22;10347;51.828;6.466;2022-09-09T04:45:34;17.40;99.90
20376;DHT22;10347;51.828;6.466;2022-09-09T04:47:59;17.40;99.90
20376;DHT22;10347;51.828;6.466;2022-09-09T04:50:25;17.30;99.90
20376;DHT22;10347;51.828;6.466;2022-09-09T04:52:51;17.40;99.90
20376;DHT22;10347;51.828;6.466;2022-09-09T04:55:16;17.40;99.90
20376;DHT22;10347;51.828;6.466;2022-09-09T04:57:42;17.40;99.90
20376;DHT22;10347;51.828;6.466;2022-09-09T05:00:08;17.40;99.90
20376;DHT22;10347;51.828;6.466;2022-09-09T05:02:39;17.40;99.90
20376;DHT22;10347;51.828;6.466;2022-09-09T05:05:05;17.40;99.90
20376;DHT22;10347;51.828;6.466;2022-09-09T05:07:31;17.40;99.90
20376;DHT22;10347;51.828;6.466;2022-09-09T05:09:57;17.40;99.90
20376;DHT22;10347;51.828;6.466;2022-09-09T05:12:23;17.40;99.90
20376;DHT22;10347;51.828;6.466;2022-09-09T05:14:53;17.40;99.90
20376;DHT22;10347;51.828;6.466;2022-09-09T05:17:19;17.40;99.90
20376;DHT22;10347;51.828;6.466;2022-09-09T05:19:45;17.40;99.90
20376;DHT22;10347;51.828;6.466;2022-09-09T05:22:11;17.40;99.90
20376;DHT22;10347;51.828;6.466;2022-09-09T05:24:37;17.50;99.90
20376;DHT22;10347;51.828;6.466;2022-09-09T05:27:03;17.50;99.90
20376;DHT22;10347;51.828;6.466;2022-09-09T05:29:31;17.50;99.90
20376;DHT22;10347;51.828;6.466;2022-09-09T05:31:59;17.50;99.90
20376;DHT22;10347;51.828;6.466;2022-09-09T05:34:24;17.50;99.90
20376;DHT22;10347;51.828;6.466;2022-09-09T05:36:50;17.50;99.90
20376;DHT22;10347;51.828;6.466;2022-09-09T05:39:17;17.50;99.90
20376;DHT22;10347;51.828;6.466;2022-09-09T05:41:43;17.50;99.90
20376;DHT22;10347;51.828;6.466;2022-09-09T05:44:08;17.50;99.90
20376;DHT22;10347;51.828;6.466;2022-09-09T05:46:34;17.50;99.90
20376;DHT22;10347;51.828;6.466;2022-09-09T05:48:59;17.50;99.90
20376;DHT22;10347;51.828;6.466;2022-09-09T05:51:27;17.50;99.90
20376;DHT22;10347;51.828;6.466;2022-09-09T05:53:55;17.60;99.90
20376;DHT22;10347;51.828;6.466;2022-09-09T05:56:25;17.60;99.90
20376;DHT22;10347;51.828;6.466;2022-09-09T05:58:51;17.60;99.90
20376;DHT22;10347;51.828;6.466;2022-09-09T06:01:26;17.60;99.90
20376;DHT22;10347;51.828;6.466;2022-09-09T06:03:52;17.60;99.90
20376;DHT22;10347;51.828;6.466;2022-09-09T06:06:33;17.60;99.90
20376;DHT22;10347;51.828;6.466;2022-09-09T06:09:02;17.70;99.90
20376;DHT22;10347;51.828;6.466;2022-09-09T06:11:30;17.70;99.90
20376;DHT22;10347;51.828;6.466;2022-09-09T06:13:56;17.70;99.90
20376;DHT22;10347;51.828;6.466;2022-09-09T06:16:24;17.80;99.90
20376;DHT22;10347;51.828;6.466;2022-09-09T06:18:51;17.80;99.90
20376;DHT22;10347;51.828;6.466;2022-09-09T06:21:22;17.80;99.90
20376;DHT22;10347;51.828;6.466;2022-09-09T06:23:47;17.80;99.90
20376;DHT22;10347;51.828;6.466;2022-09-09T06:26:18;17.80;99.90
20376;DHT22;10347;51.828;6.466;2022-09-09T06:28:49;17.80;99.90
20376;DHT22;10347;51.828;6.466;2022-09-09T06:31:17;17.80;99.90
20376;DHT22;10347;51.828;6.466;2022-09-09T06:33:43;17.80;99.90
20376;DHT22;10347;51.828;6.466;2022-09-09T06:36:13;17.90;99.90
20376;DHT22;10347;51.828;6.466;2022-09-09T06:38:43;17.90;99.90
20376;DHT22;10347;51.828;6.466;2022-09-09T06:41:11;17.90;99.90
20376;DHT22;10347;51.828;6.466;2022-09-09T06:43:37;17.90;99.90
20376;DHT22;10347;51.828;6.466;2022-09-09T06:46:12;17.90;99.90
20376;DHT22;10347;51.828;6.466;2022-09-09T06:48:41;17.90;99.90
20376;DHT22;10347;51.828;6.466;2022-09-09T06:51:13;17.90;99.90
20376;DHT22;10347;51.828;6.466;2022-09-09T06:53:41;17.90;99.90
20376;DHT22;10347;51.828;6.466;2022-09-09T06:58:42;17.90;99.90
20376;DHT22;10347;51.828;6.466;2022-09-09T07:01:10;18.00;99.90
20376;DHT22;10347;51.828;6.466;2022-09-09T07:03:38;18.00;99.90
20376;DHT22;10347;51.828;6.466;2022-09-09T07:06:04;18.00;99.90
20376;DHT22;10347;51.828;6.466;2022-09-09T07:08:30;18.00;99.90
20376;DHT22;10347;51.828;6.466;2022-09-09T07:11:03;18.10;99.90
20376;DHT22;10347;51.828;6.466;2022-09-09T07:13:30;18.10;99.90
20376;DHT22;10347;51.828;6.466;2022-09-09T07:16:06;18.10;99.90
20376;DHT22;10347;51.828;6.466;2022-09-09T07:18:33;18.10;99.90
20376;DHT22;10347;51.828;6.466;2022-09-09T07:21:00;18.10;99.90
20376;DHT22;10347;51.828;6.466;2022-09-09T07:23:28;18.10;99.90
20376;DHT22;10347;51.828;6.466;2022-09-09T07:25:53;18.20;99.90
20376;DHT22;10347;51.828;6.466;2022-09-09T07:28:20;18.20;99.90
20376;DHT22;10347;51.828;6.466;2022-09-09T07:31:00;18.20;99.90
20376;DHT22;10347;51.828;6.466;2022-09-09T07:33:30;18.20;99.90
20376;DHT22;10347;51.828;6.466;2022-09-09T07:36:04;18.30;99.90
20376;DHT22;10347;51.828;6.466;2022-09-09T07:38:30;18.30;99.90
20376;DHT22;10347;51.828;6.466;2022-09-09T07:41:07;18.30;99.90
20376;DHT22;10347;51.828;6.466;2022-09-09T07:43:38;18.40;99.90
20376;DHT22;10347;51.828;6.466;2022-09-09T07:46:03;18.30;99.90
20376;DHT22;10347;51.828;6.466;2022-09-09T07:48:29;18.30;99.90
20376;DHT22;10347;51.828;6.466;2022-09-09T07:51:10;18.40;99.90
20376;DHT22;10347;51.828;6.466;2022-09-09T07:53:40;18.40;99.90
20376;DHT22;10347;51.828;6.466;2022-09-09T07:56:08;18.40;99.90
20376;DHT22;10347;51.828;6.466;2022-09-09T07:58:38;18.40;99.90
20376;DHT22;10347;51.828;6.466;2022-09-09T08:01:13;18.40;99.90
20376;DHT22;10347;51.828;6.466;2022-09-09T08:03:39;18.50;99.90
20376;DHT22;10347;51.828;6.466;2022-09-09T08:06:07;18.50;99.90
20376;DHT22;10347;51.828;6.466;2022-09-09T08:08:34;18.50;99.90
20376;DHT22;10347;51.828;6.466;2022-09-09T08:11:05;18.60;99.90
20376;DHT22;10347;51.828;6.466;2022-09-09T08:13:33;18.60;99.90
20376;DHT22;10347;51.828;6.466;2022-09-09T08:16:17;18.60;99.90
20376;DHT22;10347;51.828;6.466;2022-09-09T08:18:43;18.70;99.90
20376;DHT22;10347;51.828;6.466;2022-09-09T08:21:17;18.70;99.90
20376;DHT22;10347;51.828;6.466;2022-09-09T08:23:44;18.70;99.90
20376;DHT22;10347;51.828;6.466;2022-09-09T08:26:17;18.70;99.90
20376;DHT22;10347;51.828;6.466;2022-09-09T08:28:48;18.70;99.90
20376;DHT22;10347;51.828;6.466;2022-09-09T08:31:19;18.80;99.90
20376;DHT22;10347;51.828;6.466;2022-09-09T08:33:45;18.80;99.90
20376;DHT22;10347;51.828;6.466;2022-09-09T08:36:16;18.90;99.90
20376;DHT22;10347;51.828;6.466;2022-09-09T08:38:48;18.90;99.90
20376;DHT22;10347;51.828;6.466;2022-09-09T08:43:50;19.00;99.90
20376;DHT22;10347;51.828;6.466;2022-09-09T08:49:35;19.00;99.90
20376;DHT22;10347;51.828;6.466;2022-09-09T08:52:12;19.10;99.90
20376;DHT22;10347;51.828;6.466;2022-09-09T08:54:38;19.10;99.90
20376;DHT22;10347;51.828;6.466;2022-09-09T08:57:14;19.20;99.90
20376;DHT22;10347;51.828;6.466;2022-09-09T08:59:42;19.40;99.90
20376;DHT22;10347;51.828;6.466;2022-09-09T09:05:09;19.50;99.90
20376;DHT22;10347;51.828;6.466;2022-09-09T09:07:55;19.60;99.90
20376;DHT22;10347;51.828;6.466;2022-09-09T09:10:53;19.60;99.90
20376;DHT22;10347;51.828;6.466;2022-09-09T09:13:43;19.60;99.90
20376;DHT22;10347;51.828;6.466;2022-09-09T09:16:27;19.70;99.90
20376;DHT22;10347;51.828;6.466;2022-09-09T09:18:54;19.60;99.90
20376;DHT22;10347;51.828;6.466;2022-09-09T09:21:41;19.60;99.90
20376;DHT22;10347;51.828;6.466;2022-09-09T09:24:16;19.70;99.90
20376;DHT22;10347;51.828;6.466;2022-09-09T09:26:43;19.70;99.90
20376;DHT22;10347;51.828;6.466;2022-09-09T09:29:15;19.70;99.90
20376;DHT22;10347;51.828;6.466;2022-09-09T09:31:47;19.60;99.90
20376;DHT22;10347;51.828;6.466;2022-09-09T09:34:14;19.60;99.90
20376;DHT22;10347;51.828;6.466;2022-09-09T09:36:45;19.70;99.90
20376;DHT22;10347;51.828;6.466;2022-09-09T09:39:26;19.70;99.90
20376;DHT22;10347;51.828;6.466;2022-09-09T09:41:53;19.70;99.90
20376;DHT22;10347;51.828;6.466;2022-09-09T09:44:23;19.70;99.90
20376;DHT22;10347;51.828;6.466;2022-09-09T09:46:50;19.80;99.90
20376;DHT22;10347;51.828;6.466;2022-09-09T09:49:15;19.80;99.90
20376;DHT22;10347;51.828;6.466;2022-09-09T09:51:42;19.90;99.90
20376;DHT22;10347;51.828;6.466;2022-09-09T09:54:15;20.00;99.90
20376;DHT22;10347;51.828;6.466;2022-09-09T09:56:44;20.00;99.90
20376;DHT22;10347;51.828;6.466;2022-09-09T09:59:33;20.10;99.90
20376;DHT22;10347;51.828;6.466;2022-09-09T10:04:46;20.20;99.90
20376;DHT22;10347;51.828;6.466;2022-09-09T10:07:19;20.20;99.90
20376;DHT22;10347;51.828;6.466;2022-09-09T10:09:48;20.30;99.90
20376;DHT22;10347;51.828;6.466;2022-09-09T10:12:30;20.30;99.90
20376;DHT22;10347;51.828;6.466;2022-09-09T10:15:15;20.30;99.90
20376;DHT22;10347;51.828;6.466;2022-09-09T10:34:26;20.60;99.90
20376;DHT22;10347;51.828;6.466;2022-09-09T10:36:56;20.60;99.90
20376;DHT22;10347;51.828;6.466;2022-09-09T10:39:36;20.60;99.90
20376;DHT22;10347;51.828;6.466;2022-09-09T10:42:06;20.60;99.90
20376;DHT22;10347;51.828;6.466;2022-09-09T10:45:00;20.60;99.90
20376;DHT22;10347;51.828;6.466;2022-09-09T10:48:01;20.60;99.90
20376;DHT22;10347;51.828;6.466;2022-09-09T10:55:42;20.50;99.90
20376;DHT22;10347;51.828;6.466;2022-09-09T10:58:17;20.50;99.90
20376;DHT22;10347;51.828;6.466;2022-09-09T11:00:56;20.50;99.90
20376;DHT22;10347;51.828;6.466;2022-09-09T11:03:26;20.60;99.90
20376;DHT22;10347;51.828;6.466;2022-09-09T11:06:02;20.60;99.90
20376;DHT22;10347;51.828;6.466;2022-09-09T11:08:31;20.60;99.90
20376;DHT22;10347;51.828;6.466;2022-09-09T11:16:04;20.60;99.90
20376;DHT22;10347;51.828;6.466;2022-09-09T11:18:31;20.60;99.90
20376;DHT22;10347;51.828;6.466;2022-09-09T11:21:03;20.60;99.90
20376;DHT22;10347;51.828;6.466;2022-09-09T11:23:43;20.60;99.90
20376;DHT22;10347;51.828;6.466;2022-09-09T11:26:18;20.60;99.90
20376;DHT22;10347;51.828;6.466;2022-09-09T11:31:32;20.60;99.90
20376;DHT22;10347;51.828;6.466;2022-09-09T11:42:07;20.60;99.90
20376;DHT22;10347;51.828;6.466;2022-09-09T11:44:33;20.60;99.90
20376;DHT22;10347;51.828;6.466;2022-09-09T11:46:59;20.60;99.90
20376;DHT22;10347;51.828;6.466;2022-09-09T11:49:28;20.60;99.90
20376;DHT22;10347;51.828;6.466;2022-09-09T11:51:54;20.60;99.90
20376;DHT22;10347;51.828;6.466;2022-09-09T11:54:31;20.60;99.90
20376;DHT22;10347;51.828;6.466;2022-09-09T11:56:58;20.60;99.90
20376;DHT22;10347;51.828;6.466;2022-09-09T11:59:28;20.60;99.90
20376;DHT22;10347;51.828;6.466;2022-09-09T12:02:27;20.60;99.90
20376;DHT22;10347;51.828;6.466;2022-09-09T12:05:07;20.60;99.90
20376;DHT22;10347;51.828;6.466;2022-09-09T12:07:37;20.60;99.90
20376;DHT22;10347;51.828;6.466;2022-09-09T12:10:23;20.40;99.90
20376;DHT22;10347;51.828;6.466;2022-09-09T12:12:50;20.40;99.90
20376;DHT22;10347;51.828;6.466;2022-09-09T12:17:51;20.20;99.90
20376;DHT22;10347;51.828;6.466;2022-09-09T12:20:19;20.20;99.90
20376;DHT22;10347;51.828;6.466;2022-09-09T12:25:47;20.00;99.90
20376;DHT22;10347;51.828;6.466;2022-09-09T12:31:23;19.90;99.90
20376;DHT22;10347;51.828;6.466;2022-09-09T12:33:50;19.90;99.90
20376;DHT22;10347;51.828;6.466;2022-09-09T12:36:21;19.90;99.90
20376;DHT22;10347;51.828;6.466;2022-09-09T12:38:49;19.90;99.90
20376;DHT22;10347;51.828;6.466;2022-09-09T12:41:22;19.90;99.90
20376;DHT22;10347;51.828;6.466;2022-09-09T12:43:49;19.90;99.90
20376;DHT22;10347;51.828;6.466;2022-09-09T12:46:39;19.80;99.90
20376;DHT22;10347;51.828;6.466;2022-09-09T12:51:51;19.80;99.90
20376;DHT22;10347;51.828;6.466;2022-09-09T12:54:17;19.80;99.90
20376;DHT22;10347;51.828;6.466;2022-09-09T12:56:46;19.80;99.90
20376;DHT22;10347;51.828;6.466;2022-09-09T12:59:24;19.80;99.90
20376;DHT22;10347;51.828;6.466;2022-09-09T13:01:57;19.90;99.90
20376;DHT22;10347;51.828;6.466;2022-09-09T13:04:23;19.80;99.90
20376;DHT22;10347;51.828;6.466;2022-09-09T13:06:49;19.80;99.90
20376;DHT22;10347;51.828;6.466;2022-09-09T13:09:14;19.80;99.90
20376;DHT22;10347;51.828;6.466;2022-09-09T13:11:47;19.80;99.90
20376;DHT22;10347;51.828;6.466;2022-09-09T13:14:42;19.80;99.90
20376;DHT22;10347;51.828;6.466;2022-09-09T13:17:19;19.90;99.90
20376;DHT22;10347;51.828;6.466;2022-09-09T13:19:46;19.90;99.90
20376;DHT22;10347;51.828;6.466;2022-09-09T13:22:22;19.90;99.90
20376;DHT22;10347;51.828;6.466;2022-09-09T13:25:27;19.90;99.90
20376;DHT22;10347;51.828;6.466;2022-09-09T13:28:00;19.90;99.90
20376;DHT22;10347;51.828;6.466;2022-09-09T13:30:37;20.00;99.90
20376;DHT22;10347;51.828;6.466;2022-09-09T13:35:58;20.10;99.90
20376;DHT22;10347;51.828;6.466;2022-09-09T13:38:24;20.10;99.90
20376;DHT22;10347;51.828;6.466;2022-09-09T13:41:01;20.20;99.90
20376;DHT22;10347;51.828;6.466;2022-09-09T13:43:51;20.20;99.90
20376;DHT22;10347;51.828;6.466;2022-09-09T13:46:35;20.20;99.90
20376;DHT22;10347;51.828;6.466;2022-09-09T13:54:04;20.40;99.90
20376;DHT22;10347;51.828;6.466;2022-09-09T13:56:35;20.50;99.90
20376;DHT22;10347;51.828;6.466;2022-09-09T13:59:02;20.50;99.90
20376;DHT22;10347;51.828;6.466;2022-09-09T14:01:28;20.50;99.90
20376;DHT22;10347;51.828;6.466;2022-09-09T14:03:54;20.60;99.90
20376;DHT22;10347;51.828;6.466;2022-09-09T14:06:20;20.70;99.90
20376;DHT22;10347;51.828;6.466;2022-09-09T14:08:50;20.80;99.90
20376;DHT22;10347;51.828;6.466;2022-09-09T14:11:16;20.80;99.90
20376;DHT22;10347;51.828;6.466;2022-09-09T14:13:42;20.80;99.90
20376;DHT22;10347;51.828;6.466;2022-09-09T14:16:08;20.90;99.90
20376;DHT22;10347;51.828;6.466;2022-09-09T14:18:33;20.90;99.90
20376;DHT22;10347;51.828;6.466;2022-09-09T14:20:59;21.00;99.90
20376;DHT22;10347;51.828;6.466;2022-09-09T14:23:25;21.00;99.90
20376;DHT22;10347;51.828;6.466;2022-09-09T14:25:51;21.00;99.90
20376;DHT22;10347;51.828;6.466;2022-09-09T14:28:17;21.00;99.90
20376;DHT22;10347;51.828;6.466;2022-09-09T14:30:43;21.00;99.90
20376;DHT22;10347;51.828;6.466;2022-09-09T14:33:14;21.10;99.90
20376;DHT22;10347;51.828;6.466;2022-09-09T14:35:41;21.10;99.90
20376;DHT22;10347;51.828;6.466;2022-09-09T14:38:08;21.10;99.90
20376;DHT22;10347;51.828;6.466;2022-09-09T14:40:35;21.20;99.90
20376;DHT22;10347;51.828;6.466;2022-09-09T14:43:00;21.10;99.90
20376;DHT22;10347;51.828;6.466;2022-09-09T14:45:26;21.20;99.90
20376;DHT22;10347;51.828;6.466;2022-09-09T14:47:52;21.20;99.90
20376;DHT22;10347;51.828;6.466;2022-09-09T14:50:19;21.20;99.90
20376;DHT22;10347;51.828;6.466;2022-09-09T14:52:45;21.20;99.90
20376;DHT22;10347;51.828;6.466;2022-09-09T14:55:11;21.20;99.90
20376;DHT22;10347;51.828;6.466;2022-09-09T14:57:37;21.20;99.90
20376;DHT22;10347;51.828;6.466;2022-09-09T15:00:04;21.20;99.90
20376;DHT22;10347;51.828;6.466;2022-09-09T15:02:31;21.10;99.90
20376;DHT22;10347;51.828;6.466;2022-09-09T15:04:56;21.20;99.90
20376;DHT22;10347;51.828;6.466;2022-09-09T15:07:24;21.10;99.90
20376;DHT22;10347;51.828;6.466;2022-09-09T15:09:49;21.10;99.90
20376;DHT22;10347;51.828;6.466;2022-09-09T15:12:15;21.20;99.90
20376;DHT22;10347;51.828;6.466;2022-09-09T15:14:44;21.10;99.90
20376;DHT22;10347;51.828;6.466;2022-09-09T15:17:10;21.10;99.90
20376;DHT22;10347;51.828;6.466;2022-09-09T15:19:36;21.10;99.90
20376;DHT22;10347;51.828;6.466;2022-09-09T15:22:02;21.20;99.90
20376;DHT22;10347;51.828;6.466;2022-09-09T15:24:28;21.10;99.90
20376;DHT22;10347;51.828;6.466;2022-09-09T15:26:54;21.10;99.90
20376;DHT22;10347;51.828;6.466;2022-09-09T15:29:19;21.10;99.90
20376;DHT22;10347;51.828;6.466;2022-09-09T15:31:45;21.10;99.90
20376;DHT22;10347;51.828;6.466;2022-09-09T15:34:12;21.10;99.90
20376;DHT22;10347;51.828;6.466;2022-09-09T15:36:45;21.10;99.90
20376;DHT22;10347;51.828;6.466;2022-09-09T15:39:15;21.10;99.90
20376;DHT22;10347;51.828;6.466;2022-09-09T15:41:43;21.10;99.90
20376;DHT22;10347;51.828;6.466;2022-09-09T15:44:10;21.10;99.90
20376;DHT22;10347;51.828;6.466;2022-09-09T15:46:41;21.20;99.90
20376;DHT22;10347;51.828;6.466;2022-09-09T15:49:18;21.30;99.90
20376;DHT22;10347;51.828;6.466;2022-09-09T15:51:47;21.30;99.90
20376;DHT22;10347;51.828;6.466;2022-09-09T15:54:17;21.40;99.90
20376;DHT22;10347;51.828;6.466;2022-09-09T15:56:44;21.40;99.90
20376;DHT22;10347;51.828;6.466;2022-09-09T15:59:10;21.40;99.90
20376;DHT22;10347;51.828;6.466;2022-09-09T16:01:36;21.50;99.90
20376;DHT22;10347;51.828;6.466;2022-09-09T16:04:03;21.40;99.90
20376;DHT22;10347;51.828;6.466;2022-09-09T16:06:29;21.40;99.90
20376;DHT22;10347;51.828;6.466;2022-09-09T16:08:56;21.40;99.90
20376;DHT22;10347;51.828;6.466;2022-09-09T16:11:27;21.40;99.90
20376;DHT22;10347;51.828;6.466;2022-09-09T16:13:54;21.30;99.90
20376;DHT22;10347;51.828;6.466;2022-09-09T16:16:25;21.30;99.90
20376;DHT22;10347;51.828;6.466;2022-09-09T16:18:59;21.30;99.90
20376;DHT22;10347;51.828;6.466;2022-09-09T16:21:27;21.30;99.90
20376;DHT22;10347;51.828;6.466;2022-09-09T16:23:55;21.30;99.90
20376;DHT22;10347;51.828;6.466;2022-09-09T16:26:21;21.20;99.90
20376;DHT22;10347;51.828;6.466;2022-09-09T16:28:48;21.20;99.90
20376;DHT22;10347;51.828;6.466;2022-09-09T16:31:19;21.20;99.90
20376;DHT22;10347;51.828;6.466;2022-09-09T16:33:45;21.10;99.90
20376;DHT22;10347;51.828;6.466;2022-09-09T16:36:17;21.10;99.90
20376;DHT22;10347;51.828;6.466;2022-09-09T16:38:43;21.10;99.90
20376;DHT22;10347;51.828;6.466;2022-09-09T16:41:10;21.10;99.90
20376;DHT22;10347;51.828;6.466;2022-09-09T16:43:36;21.00;99.90
20376;DHT22;10347;51.828;6.466;2022-09-09T16:46:03;21.00;99.90
20376;DHT22;10347;51.828;6.466;2022-09-09T16:48:33;21.00;99.90
20376;DHT22;10347;51.828;6.466;2022-09-09T16:51:19;21.00;99.90
20376;DHT22;10347;51.828;6.466;2022-09-09T16:53:46;21.00;99.90
20376;DHT22;10347;51.828;6.466;2022-09-09T16:56:14;21.00;99.90
20376;DHT22;10347;51.828;6.466;2022-09-09T16:58:41;21.00;99.90
20376;DHT22;10347;51.828;6.466;2022-09-09T17:01:09;20.90;99.90
20376;DHT22;10347;51.828;6.466;2022-09-09T17:03:36;20.90;99.90
20376;DHT22;10347;51.828;6.466;2022-09-09T17:06:03;20.90;99.90
20376;DHT22;10347;51.828;6.466;2022-09-09T17:08:31;20.90;99.90
20376;DHT22;10347;51.828;6.466;2022-09-09T17:10:58;20.90;99.90
20376;DHT22;10347;51.828;6.466;2022-09-09T17:13:24;20.90;99.90
20376;DHT22;10347;51.828;6.466;2022-09-09T17:15:50;20.80;99.90
20376;DHT22;10347;51.828;6.466;2022-09-09T17:18:16;20.70;99.90
20376;DHT22;10347;51.828;6.466;2022-09-09T17:20:42;20.50;99.90
20376;DHT22;10347;51.828;6.466;2022-09-09T17:23:10;20.40;99.90
20376;DHT22;10347;51.828;6.466;2022-09-09T17:25:36;20.20;99.90
20376;DHT22;10347;51.828;6.466;2022-09-09T17:28:02;20.20;99.90
20376;DHT22;10347;51.828;6.466;2022-09-09T17:30:32;20.20;99.90
20376;DHT22;10347;51.828;6.466;2022-09-09T17:32:59;20.10;99.90
20376;DHT22;10347;51.828;6.466;2022-09-09T17:35:24;20.10;99.90
20376;DHT22;10347;51.828;6.466;2022-09-09T17:37:52;20.00;99.90